createdAt,value
2023-02-15T00:00:00.254Z,17.58
2023-02-15T00:01:00.323Z,17.58
2023-02-15T00:02:00.446Z,17.59
2023-02-15T00:03:00.572Z,17.59
2023-02-15T00:04:00.551Z,17.59
2023-02-15T00:05:00.618Z,17.58
2023-02-15T00:06:01.001Z,17.58
2023-02-15T00:07:00.771Z,17.58
2023-02-15T00:08:00.819Z,17.58
2023-02-15T00:09:00.896Z,17.58
2023-02-15T00:10:00.979Z,17.58
2023-02-15T00:11:01.043Z,17.58
2023-02-15T00:12:01.112Z,17.58
2023-02-15T00:13:01.181Z,17.59
2023-02-15T00:14:01.264Z,17.58
2023-02-15T00:15:01.331Z,17.58
2023-02-15T00:16:01.788Z,17.58
2023-02-15T00:17:01.475Z,17.57
2023-02-15T00:18:01.551Z,17.58
2023-02-15T00:19:01.622Z,17.57
2023-02-15T01:33:07.267Z,17.54
2023-02-15T01:34:07.356Z,17.54
2023-02-15T01:35:07.419Z,17.54
2023-02-15T01:36:07.506Z,17.54
2023-02-15T01:37:07.661Z,17.54
2023-02-15T01:38:07.651Z,17.54
2023-02-15T01:39:07.722Z,17.54
2023-02-15T01:40:07.807Z,17.54
2023-02-15T01:41:07.886Z,17.54
2023-02-15T01:42:07.966Z,17.54
2023-02-15T01:43:08.062Z,17.54
2023-02-15T01:44:08.131Z,17.54
2023-02-15T01:45:08.200Z,17.54
2023-02-15T01:46:08.316Z,17.53
2023-02-15T01:47:08.375Z,17.54
2023-02-15T01:48:08.458Z,17.53
2023-02-15T01:49:08.519Z,17.54
2023-02-15T01:50:08.607Z,17.54
2023-02-15T01:51:08.660Z,17.54
2023-02-15T01:52:08.722Z,17.54
2023-02-15T01:53:08.797Z,17.53
2023-02-15T01:54:08.883Z,17.53
2023-02-15T01:55:09.376Z,17.53
2023-02-15T01:56:09.016Z,17.53
2023-02-15T01:57:09.083Z,17.53
2023-02-15T01:58:09.156Z,17.53
2023-02-15T01:59:09.246Z,17.53
2023-02-15T02:00:09.304Z,17.52
2023-02-15T02:01:09.398Z,17.53
2023-02-15T02:02:09.463Z,17.53
2023-02-15T02:03:09.535Z,17.53
2023-02-15T02:04:09.585Z,17.53
2023-02-15T02:05:09.674Z,17.53
2023-02-15T02:06:09.747Z,17.53
2023-02-15T02:07:09.833Z,17.53
2023-02-15T02:08:09.889Z,17.53
2023-02-15T02:33:11.797Z,17.53
2023-02-15T02:34:11.862Z,17.52
2023-02-15T02:35:11.914Z,17.53
2023-02-15T02:36:11.995Z,17.53
2023-02-15T02:37:12.066Z,17.53
2023-02-15T02:38:12.156Z,17.53
2023-02-15T02:39:12.217Z,17.53
2023-02-15T02:40:12.309Z,17.52
2023-02-15T02:41:12.389Z,17.53
2023-02-15T02:42:12.454Z,17.53
2023-02-15T02:43:12.522Z,17.52
2023-02-15T02:44:12.575Z,17.52
2023-02-15T02:45:12.645Z,17.52
2023-02-15T02:46:12.822Z,17.52
2023-02-15T02:47:12.816Z,17.52
2023-02-15T02:48:12.885Z,17.52
2023-02-15T02:49:12.948Z,17.52
2023-02-15T02:50:13.046Z,17.52
2023-02-15T02:51:13.085Z,17.51
2023-02-15T02:52:13.147Z,17.52
2023-02-15T02:53:13.220Z,17.52
2023-02-15T02:54:13.294Z,17.52
2023-02-15T02:55:13.373Z,17.53
2023-02-15T02:56:13.453Z,17.53
2023-02-15T02:57:13.557Z,17.52
2023-02-15T02:58:13.600Z,17.52
2023-02-15T02:59:13.684Z,17.52
2023-02-15T03:00:13.753Z,17.51
2023-02-15T03:01:13.838Z,17.51
2023-02-15T03:02:14.103Z,17.51
2023-02-15T03:03:14.001Z,17.52
2023-02-15T03:04:14.072Z,17.51
2023-02-15T03:05:14.160Z,17.51
2023-02-15T03:06:14.228Z,17.51
2023-02-15T03:07:14.311Z,17.52
2023-02-15T03:08:14.397Z,17.52
2023-02-15T03:09:14.473Z,17.52
2023-02-15T03:10:14.553Z,17.52
2023-02-15T03:11:14.652Z,17.52
2023-02-15T03:12:14.715Z,17.52
2023-02-15T03:13:14.794Z,17.53
2023-02-15T03:14:14.879Z,17.52
2023-02-15T03:15:14.995Z,17.51
2023-02-15T03:16:15.092Z,17.51
2023-02-15T03:17:15.128Z,17.51
2023-02-15T03:18:15.222Z,17.50
2023-02-15T03:19:15.284Z,17.51
2023-02-15T03:20:15.358Z,17.50
2023-02-15T03:21:15.440Z,17.51
2023-02-15T03:22:15.521Z,17.51
2023-02-15T03:23:15.595Z,17.51
2023-02-15T03:24:16.520Z,17.51
2023-02-15T03:25:15.749Z,17.51
2023-02-15T03:26:15.839Z,17.51
2023-02-15T03:27:15.901Z,17.52
2023-02-15T03:28:15.999Z,17.51
2023-02-15T03:29:16.072Z,17.52
2023-02-15T03:30:16.247Z,17.51
2023-02-15T03:31:16.334Z,17.51
2023-02-15T03:32:16.517Z,17.52
2023-02-15T03:33:16.407Z,17.51
2023-02-15T03:34:16.472Z,17.51
2023-02-15T03:35:16.562Z,17.51
2023-02-15T03:36:16.657Z,17.50
2023-02-15T03:51:17.800Z,17.51
2023-02-15T03:52:17.867Z,17.51
2023-02-15T03:53:17.963Z,17.51
2023-02-15T03:54:18.040Z,17.50
2023-02-15T03:55:18.105Z,17.50
2023-02-15T03:56:18.186Z,17.50
2023-02-15T03:57:18.257Z,17.50
2023-02-15T03:58:18.337Z,17.51
2023-02-15T03:59:18.411Z,17.50
2023-02-15T04:00:18.488Z,17.51
2023-02-15T04:01:18.641Z,17.49
2023-02-15T04:02:18.650Z,17.49
2023-02-15T04:03:18.799Z,17.49
2023-02-15T04:04:18.815Z,17.49
2023-02-15T04:05:18.901Z,17.50
2023-02-15T04:06:18.980Z,17.50
2023-02-15T04:07:19.054Z,17.50
2023-02-15T04:08:19.136Z,17.50
2023-02-15T04:09:19.217Z,17.50
2023-02-15T04:10:19.304Z,17.50
2023-02-15T04:11:19.389Z,17.50
2023-02-15T04:12:19.479Z,17.51
2023-02-15T04:13:19.544Z,17.52
2023-02-15T04:14:19.618Z,17.52
2023-02-15T04:15:19.707Z,17.51
2023-02-15T04:16:19.821Z,17.51
2023-02-15T04:17:19.870Z,17.51
2023-02-15T04:18:19.931Z,17.51
2023-02-15T04:19:20.024Z,17.51
2023-02-15T04:20:20.098Z,17.51
2023-02-15T04:21:20.171Z,17.51
2023-02-15T04:22:20.253Z,17.51
2023-02-15T04:23:20.341Z,17.51
2023-02-15T04:24:20.415Z,17.51
2023-02-15T04:25:20.484Z,17.50
2023-02-15T04:26:20.581Z,17.50
2023-02-15T04:27:20.662Z,17.50
2023-02-15T04:28:20.754Z,17.50
2023-02-15T04:29:20.825Z,17.50
2023-02-15T04:30:20.934Z,17.50
2023-02-15T04:31:21.058Z,17.51
2023-02-15T04:32:21.106Z,17.51
2023-02-15T04:33:21.148Z,17.52
2023-02-15T04:34:21.234Z,17.52
2023-02-15T04:35:21.323Z,17.51
2023-02-15T05:59:27.835Z,17.50
2023-02-15T06:00:27.923Z,17.49
2023-02-15T06:01:28.014Z,17.49
2023-02-15T06:02:28.117Z,17.51
2023-02-15T06:03:28.215Z,17.50
2023-02-15T06:04:28.266Z,17.50
2023-02-15T06:05:28.328Z,17.49
2023-02-15T06:06:28.413Z,17.51
2023-02-15T06:07:28.492Z,17.50
2023-02-15T06:08:28.576Z,17.50
2023-02-15T06:09:28.657Z,17.49
2023-02-15T06:10:28.747Z,17.50
2023-02-15T06:11:28.815Z,17.50
2023-02-15T06:12:28.907Z,17.49
2023-02-15T06:13:28.998Z,17.50
2023-02-15T06:14:29.074Z,17.49
2023-02-15T06:15:29.208Z,17.49
2023-02-15T06:16:29.242Z,17.49
2023-02-15T06:17:29.299Z,17.49
2023-02-15T06:18:29.378Z,17.48
2023-02-15T06:19:29.469Z,17.48
2023-02-15T06:20:29.552Z,17.49
2023-02-15T06:21:29.634Z,17.49
2023-02-15T06:22:29.688Z,17.50
2023-02-15T06:23:29.763Z,17.50
2023-02-15T06:24:29.853Z,17.50
2023-02-15T06:25:29.928Z,17.50
2023-02-15T06:26:30.016Z,17.50
2023-02-15T06:27:30.098Z,17.51
2023-02-15T06:28:30.178Z,17.50
2023-02-15T06:29:30.269Z,17.50
2023-02-15T06:30:30.435Z,17.50
2023-02-15T06:31:30.498Z,17.50
2023-02-15T06:32:30.768Z,17.49
2023-02-15T06:33:30.587Z,17.49
2023-02-15T06:34:30.665Z,17.49
2023-02-15T06:35:30.717Z,17.50
2023-02-15T06:36:30.802Z,17.51
2023-02-15T06:37:30.876Z,17.50
2023-02-15T06:38:30.951Z,17.50
2023-02-15T06:39:31.036Z,17.51
2023-02-15T06:40:31.112Z,17.51
2023-02-15T06:41:31.169Z,17.51
2023-02-15T06:42:31.228Z,17.51
2023-02-15T06:43:31.305Z,17.51
2023-02-15T06:44:31.382Z,17.51
2023-02-15T06:45:31.470Z,17.51
2023-02-15T06:46:31.561Z,17.52
2023-02-15T06:47:31.632Z,17.51
2023-02-15T06:48:31.721Z,17.51
2023-02-15T06:49:31.792Z,17.52
2023-02-15T06:50:31.872Z,17.51
2023-02-15T06:51:31.940Z,17.50
2023-02-15T06:52:32.010Z,17.50
2023-02-15T06:53:32.099Z,17.50
2023-02-15T06:54:32.175Z,17.49
2023-02-15T06:55:32.246Z,17.50
2023-02-15T06:56:32.317Z,17.50
2023-02-15T06:57:32.383Z,17.51
2023-02-15T06:58:32.462Z,17.51
2023-02-15T06:59:32.538Z,17.50
2023-02-15T07:00:32.693Z,17.50
2023-02-15T07:01:32.766Z,17.50
2023-02-15T07:02:32.785Z,17.49
2023-02-15T07:03:32.865Z,17.50
2023-02-15T07:04:33.085Z,17.49
2023-02-15T07:05:33.021Z,17.49
2023-02-15T07:06:33.106Z,17.50
2023-02-15T07:07:33.199Z,17.50
2023-02-15T07:08:33.272Z,17.51
2023-02-15T07:09:33.340Z,17.50
2023-02-15T07:10:33.419Z,17.51
2023-02-15T07:11:33.502Z,17.50
2023-02-15T07:12:33.589Z,17.50
2023-02-15T07:13:33.668Z,17.50
2023-02-15T07:14:33.742Z,17.49
2023-02-15T07:15:33.807Z,17.50
2023-02-15T07:16:33.884Z,17.50
2023-02-15T07:17:36.245Z,17.50
2023-02-15T07:18:34.219Z,17.50
2023-02-15T07:19:34.286Z,17.50
2023-02-15T07:20:36.126Z,17.50
2023-02-15T07:21:34.396Z,17.50
2023-02-15T07:22:34.408Z,17.49
2023-02-15T07:23:34.428Z,17.48
2023-02-15T07:24:34.450Z,17.49
2023-02-15T07:25:34.467Z,17.50
2023-02-15T07:26:34.495Z,17.50
2023-02-15T07:27:34.514Z,17.49
2023-02-15T07:28:34.536Z,17.49
2023-02-15T07:29:34.557Z,17.49
2023-02-15T07:30:34.652Z,17.49
2023-02-15T07:31:34.577Z,17.49
2023-02-15T07:32:34.694Z,17.49
2023-02-15T07:33:34.612Z,17.48
2023-02-15T07:34:34.639Z,17.49
2023-02-15T07:35:35.480Z,17.49
2023-02-15T07:36:34.668Z,17.49
2023-02-15T07:37:34.696Z,17.48
2023-02-15T07:38:34.691Z,17.48
2023-02-15T07:39:34.708Z,17.49
2023-02-15T07:40:34.734Z,17.49
2023-02-15T07:41:34.747Z,17.49
2023-02-15T07:42:34.759Z,17.49
2023-02-15T07:43:34.811Z,17.49
2023-02-15T07:44:34.793Z,17.49
2023-02-15T07:45:34.817Z,17.49
2023-02-15T07:46:34.870Z,17.49
2023-02-15T07:47:34.849Z,17.50
2023-02-15T07:48:34.874Z,17.49
2023-02-15T07:49:34.893Z,17.50
2023-02-15T07:50:34.901Z,17.49
2023-02-15T07:51:34.928Z,17.49
2023-02-15T07:52:34.949Z,17.49
2023-02-15T07:53:34.963Z,17.49
2023-02-15T07:54:35.010Z,17.48
2023-02-15T07:55:35.012Z,17.50
2023-02-15T07:56:37.029Z,17.49
2023-02-15T07:57:35.049Z,17.49
2023-02-15T07:58:35.064Z,17.49
2023-02-15T07:59:35.911Z,17.49
2023-02-15T08:00:35.100Z,17.49
2023-02-15T08:01:35.125Z,17.49
2023-02-15T08:02:35.225Z,17.50
2023-02-15T08:36:37.782Z,17.58
2023-02-15T08:37:37.865Z,17.57
2023-02-15T08:38:37.950Z,17.57
2023-02-15T08:39:38.012Z,17.59
2023-02-15T08:40:38.089Z,17.59
2023-02-15T08:41:38.165Z,17.59
2023-02-15T08:42:38.235Z,17.60
2023-02-15T08:43:38.299Z,17.59
2023-02-15T08:44:38.361Z,17.60
2023-02-15T08:45:38.494Z,17.60
2023-02-15T08:46:38.516Z,17.61
2023-02-15T08:47:38.576Z,17.60
2023-02-15T08:48:38.666Z,17.61
2023-02-15T08:49:38.735Z,17.60
2023-02-15T08:50:38.786Z,17.61
2023-02-15T08:51:38.860Z,17.61
2023-02-15T08:52:38.965Z,17.61
2023-02-15T08:53:39.000Z,17.61
2023-02-15T08:54:39.068Z,17.61
2023-02-15T08:55:39.130Z,17.61
2023-02-15T08:56:39.194Z,17.61
2023-02-15T08:57:39.248Z,17.61
2023-02-15T08:58:39.319Z,17.61
2023-02-15T08:59:39.386Z,17.61
2023-02-15T09:00:39.462Z,17.61
2023-02-15T09:01:39.572Z,17.61
2023-02-15T09:02:39.622Z,17.61
2023-02-15T09:03:39.640Z,17.61
2023-02-15T09:04:39.714Z,17.61
2023-02-15T09:05:39.777Z,17.61
2023-02-15T09:23:40.957Z,17.63
2023-02-15T11:51:47.799Z,18.42
2023-02-15T11:52:47.812Z,18.42
2023-02-15T11:53:47.825Z,18.42
2023-02-15T11:54:47.851Z,18.42
2023-02-15T11:55:47.882Z,18.42
2023-02-15T11:56:47.924Z,18.41
2023-02-15T11:57:48.001Z,18.41
2023-02-15T11:58:48.092Z,18.41
2023-02-15T11:59:48.087Z,18.40
2023-02-15T12:00:48.165Z,18.41
2023-02-15T12:01:48.233Z,18.40
2023-02-15T12:02:48.299Z,18.40
2023-02-15T12:03:48.380Z,18.40
2023-02-15T12:04:48.379Z,18.40
2023-02-15T12:05:48.421Z,18.40
2023-02-15T12:06:48.450Z,18.40
2023-02-15T12:07:48.461Z,18.39
2023-02-15T12:08:48.484Z,18.40
2023-02-15T12:09:48.510Z,18.39
2023-02-15T12:10:48.514Z,18.39
2023-02-15T12:11:48.529Z,18.39
2023-02-15T12:12:48.544Z,18.39
2023-02-15T12:13:48.577Z,18.38
2023-02-15T12:14:48.625Z,18.38
2023-02-15T12:15:48.680Z,18.37
2023-02-15T12:16:48.661Z,18.37
2023-02-15T12:17:48.690Z,18.37
2023-02-15T12:18:48.753Z,18.37
2023-02-15T12:19:48.760Z,18.37
2023-02-15T12:20:48.981Z,18.37
2023-02-15T12:21:48.874Z,18.36
2023-02-15T12:22:48.882Z,18.36
2023-02-15T12:23:48.897Z,18.36
2023-02-15T12:24:48.919Z,18.36
2023-02-15T12:25:48.950Z,18.36
2023-02-15T12:26:48.985Z,18.35
2023-02-15T12:27:49.005Z,18.36
2023-02-15T12:37:49.277Z,18.34
2023-02-15T12:38:49.279Z,18.33
2023-02-15T12:39:49.312Z,18.33
2023-02-15T12:40:49.339Z,18.32
2023-02-15T12:41:49.347Z,18.32
2023-02-15T12:42:49.380Z,18.32
2023-02-15T12:43:49.380Z,18.32
2023-02-15T12:44:49.405Z,18.32
2023-02-15T12:45:49.470Z,18.31
2023-02-15T12:46:49.517Z,18.31
2023-02-15T12:47:49.511Z,18.31
2023-02-15T12:48:49.517Z,18.31
2023-02-15T12:49:49.550Z,18.30
2023-02-15T12:50:54.683Z,18.30
2023-02-15T12:51:50.579Z,18.30
2023-02-15T12:52:49.654Z,18.30
2023-02-15T12:53:49.596Z,18.29
2023-02-15T12:54:49.607Z,18.29
2023-02-15T12:55:49.612Z,18.28
2023-02-15T12:56:49.624Z,18.28
2023-02-15T12:57:49.636Z,18.28
2023-02-15T12:58:49.651Z,18.27
2023-02-15T12:59:49.654Z,18.27
2023-02-15T13:00:49.715Z,18.27
2023-02-15T13:01:49.703Z,18.27
2023-02-15T13:02:49.690Z,18.26
2023-02-15T13:03:49.693Z,18.26
2023-02-15T13:04:49.700Z,18.26
2023-02-15T13:05:49.708Z,18.25
2023-02-15T13:06:49.726Z,18.25
2023-02-15T13:07:49.737Z,18.25
2023-02-15T13:08:49.765Z,18.24
2023-02-15T13:09:49.749Z,18.24
2023-02-15T13:10:49.764Z,18.23
2023-02-15T13:11:49.771Z,18.23
2023-02-15T13:12:49.785Z,18.23
2023-02-15T13:13:49.801Z,18.23
2023-02-15T13:14:49.802Z,18.22
2023-02-15T13:15:49.821Z,18.22
2023-02-15T13:16:49.896Z,18.22
2023-02-15T13:17:49.841Z,18.22
2023-02-15T13:18:49.880Z,18.22
2023-02-15T13:19:49.894Z,18.21
2023-02-15T13:20:49.912Z,18.20
2023-02-15T13:21:49.956Z,18.20
2023-02-15T13:22:49.974Z,18.20
2023-02-15T13:23:50.081Z,18.20
2023-02-15T13:24:50.044Z,18.20
2023-02-15T13:25:50.051Z,18.20
2023-02-15T13:26:50.068Z,18.19
2023-02-15T13:27:50.099Z,18.19
2023-02-15T13:28:50.113Z,18.19
2023-02-15T13:29:50.178Z,18.19
2023-02-15T13:30:50.182Z,18.19
2023-02-15T13:31:50.340Z,18.18
2023-02-15T13:32:50.223Z,18.19
2023-02-15T13:33:50.260Z,18.18
2023-02-15T13:34:50.264Z,18.17
2023-02-15T13:35:50.296Z,18.18
2023-02-15T13:36:50.323Z,18.17
2023-02-15T13:37:50.348Z,18.17
2023-02-15T13:38:50.363Z,18.17
2023-02-15T13:39:50.410Z,18.16
2023-02-15T13:40:51.265Z,18.16
2023-02-15T13:41:50.456Z,18.16
2023-02-15T13:42:50.467Z,18.16
2023-02-15T13:43:50.488Z,18.15
2023-02-15T13:44:50.509Z,18.15
2023-02-15T13:45:50.578Z,18.16
2023-02-15T13:46:50.557Z,18.16
2023-02-15T13:47:50.588Z,18.15
2023-02-15T13:48:51.465Z,18.15
2023-02-15T13:49:50.627Z,18.15
2023-02-15T13:50:50.665Z,18.15
2023-02-15T13:51:50.679Z,18.14
2023-02-15T13:52:50.697Z,18.14
2023-02-15T13:53:50.736Z,18.14
2023-02-15T13:54:50.754Z,18.14
2023-02-15T13:55:50.772Z,18.14
2023-02-15T13:56:50.808Z,18.14
2023-02-15T13:57:50.853Z,18.14
2023-02-15T13:58:50.868Z,18.12
2023-02-15T13:59:51.433Z,18.12
2023-02-15T14:00:50.975Z,18.12
2023-02-15T14:01:50.950Z,18.12
2023-02-15T14:02:50.975Z,18.13
2023-02-15T14:03:51.073Z,18.12
2023-02-15T14:04:51.008Z,18.12
2023-02-15T14:05:51.036Z,18.12
2023-02-15T14:06:51.077Z,18.12
2023-02-15T14:07:51.090Z,18.11
2023-02-15T14:08:51.111Z,18.11
2023-02-15T14:09:51.143Z,18.11
2023-02-15T14:10:51.163Z,18.10
2023-02-15T14:11:51.184Z,18.11
2023-02-15T14:12:51.202Z,18.10
2023-02-15T14:13:51.232Z,18.10
2023-02-15T14:14:51.255Z,18.10
2023-02-15T14:15:51.289Z,18.11
2023-02-15T14:17:05.744Z,18.09
2023-02-15T14:18:51.323Z,18.09
2023-02-15T14:19:51.336Z,18.09
2023-02-15T14:20:51.338Z,18.08
2023-02-15T14:21:51.354Z,18.09
2023-02-15T14:22:51.353Z,18.08
2023-02-15T14:23:51.382Z,18.08
2023-02-15T14:24:51.382Z,18.08
2023-02-15T14:25:51.388Z,18.07
2023-02-15T14:26:51.406Z,18.07
2023-02-15T14:27:53.241Z,18.07
2023-02-15T14:28:51.462Z,18.07
2023-02-15T14:29:51.456Z,18.07
2023-02-15T14:30:51.753Z,18.07
2023-02-15T14:31:51.525Z,18.06
2023-02-15T14:32:51.445Z,18.07
2023-02-15T14:33:51.460Z,18.07
2023-02-15T14:34:51.494Z,18.06
2023-02-15T14:35:51.477Z,18.05
2023-02-15T14:36:51.459Z,18.05
2023-02-15T14:37:51.475Z,18.05
2023-02-15T14:38:51.477Z,18.06
2023-02-15T14:39:51.484Z,18.05
2023-02-15T14:40:51.517Z,18.05
2023-02-15T14:41:51.518Z,18.05
2023-02-15T14:42:51.555Z,18.05
2023-02-15T14:43:51.596Z,18.05
2023-02-15T14:44:51.810Z,18.05
2023-02-15T14:45:51.688Z,18.04
2023-02-15T14:46:51.707Z,18.04
2023-02-15T14:47:51.738Z,18.04
2023-02-15T14:48:51.759Z,18.04
2023-02-15T14:49:51.784Z,18.03
2023-02-15T14:50:51.812Z,18.02
2023-02-15T14:51:51.876Z,18.03
2023-02-15T14:52:51.882Z,18.03
2023-02-15T14:53:51.908Z,18.02
2023-02-15T14:54:51.952Z,18.02
2023-02-15T14:55:51.983Z,18.02
2023-02-15T14:56:52.000Z,18.01
2023-02-15T14:57:52.055Z,18.01
2023-02-15T14:58:52.085Z,18.01
2023-02-15T14:59:52.120Z,18.00
2023-02-15T15:00:52.146Z,18.01
2023-02-15T15:01:52.235Z,18.01
2023-02-15T15:02:52.197Z,18.00
2023-02-15T15:03:52.252Z,18.00
2023-02-15T15:04:52.261Z,18.00
2023-02-15T15:05:52.308Z,17.99
2023-02-15T15:06:52.347Z,17.99
2023-02-15T15:07:52.372Z,18.00
2023-02-15T15:08:52.411Z,17.99
2023-02-15T15:09:52.445Z,17.99
2023-02-15T15:10:52.479Z,17.98
2023-02-15T15:11:52.535Z,17.98
2023-02-15T15:12:52.662Z,17.98
2023-02-15T15:13:52.585Z,17.98
2023-02-15T15:14:52.613Z,17.97
2023-02-15T15:15:52.653Z,17.97
2023-02-15T15:16:52.671Z,17.97
2023-02-15T15:17:52.704Z,17.97
2023-02-15T15:18:52.742Z,17.97
2023-02-15T15:19:52.995Z,17.96
2023-02-15T15:20:52.805Z,17.97
2023-02-15T15:21:52.839Z,17.96
2023-02-15T15:22:52.878Z,17.96
2023-02-15T15:23:52.919Z,17.96
2023-02-15T15:24:52.969Z,17.96
2023-02-15T15:25:53.024Z,17.96
2023-02-15T15:26:53.037Z,17.96
2023-02-15T15:27:53.094Z,17.96
2023-02-15T15:28:53.130Z,17.96
2023-02-15T15:29:53.221Z,17.96
2023-02-15T15:30:53.331Z,17.97
2023-02-15T15:31:53.350Z,17.96
2023-02-15T15:32:53.296Z,17.96
2023-02-15T15:33:53.316Z,17.97
2023-02-15T15:34:53.353Z,17.96
2023-02-15T15:35:53.404Z,17.96
2023-02-15T15:36:53.465Z,17.97
2023-02-15T15:37:53.479Z,17.97
2023-02-15T15:38:53.495Z,17.97
2023-02-15T15:39:53.530Z,17.97
2023-02-15T15:40:53.562Z,17.97
2023-02-15T15:41:53.617Z,17.97
2023-02-15T15:42:53.664Z,17.97
2023-02-15T17:13:57.799Z,17.86
2023-02-15T17:14:57.848Z,17.85
2023-02-15T17:15:57.962Z,17.85
2023-02-15T17:16:57.952Z,17.85
2023-02-15T17:17:58.028Z,17.86
2023-02-15T17:18:58.052Z,17.85
2023-02-15T17:19:58.109Z,17.85
2023-02-15T17:20:58.186Z,17.84
2023-02-15T17:21:59.097Z,17.85
2023-02-15T17:22:58.267Z,17.84
2023-02-15T17:23:58.326Z,17.84
2023-02-15T17:24:58.360Z,17.85
2023-02-15T17:25:58.444Z,17.84
2023-02-15T17:26:58.455Z,17.83
2023-02-15T17:27:58.525Z,17.84
2023-02-15T17:28:58.562Z,17.83
2023-02-15T17:29:58.636Z,17.84
2023-02-15T17:30:58.743Z,17.84
2023-02-15T17:31:58.909Z,17.84
2023-02-15T17:32:58.795Z,17.83
2023-02-15T17:33:58.854Z,17.83
2023-02-15T17:34:58.908Z,17.82
2023-02-15T17:35:58.966Z,17.82
2023-02-15T17:36:59.020Z,17.83
2023-02-15T17:37:59.080Z,17.83
2023-02-15T17:38:59.157Z,17.82
2023-02-15T17:39:59.303Z,17.82
2023-02-15T17:40:59.244Z,17.81
2023-02-15T17:41:59.299Z,17.82
2023-02-15T17:42:59.375Z,17.82
2023-02-15T19:58:08.263Z,17.66
2023-02-15T19:59:07.816Z,17.66
2023-02-15T20:00:21.082Z,17.66
2023-02-15T20:02:07.872Z,17.66
2023-02-15T20:03:07.873Z,17.65
2023-02-15T20:04:07.882Z,17.66
2023-02-15T20:05:07.931Z,17.65
2023-02-15T20:06:07.920Z,17.65
2023-02-15T20:07:07.927Z,17.65
2023-02-15T20:08:07.936Z,17.65
2023-02-15T20:09:07.947Z,17.64
2023-02-15T20:10:07.962Z,17.64
2023-02-15T20:11:07.959Z,17.64
2023-02-15T20:12:07.990Z,17.64
2023-02-15T20:13:08.050Z,17.64
2023-02-15T20:14:08.127Z,17.64
2023-02-15T20:15:08.206Z,17.63
2023-02-15T20:16:08.334Z,17.64
2023-02-15T20:17:08.470Z,17.64
2023-02-15T20:18:08.408Z,17.64
2023-02-15T20:19:08.465Z,17.64
2023-02-15T20:20:08.528Z,17.63
2023-02-15T20:21:08.600Z,17.63
2023-02-15T20:22:08.657Z,17.64
2023-02-15T20:23:08.728Z,17.63
2023-02-15T20:24:08.787Z,17.63
2023-02-15T20:25:08.851Z,17.63
2023-02-15T20:26:08.907Z,17.63
2023-02-15T20:27:08.979Z,17.63
2023-02-15T20:28:09.043Z,17.62
2023-02-15T20:29:09.153Z,17.63
2023-02-15T20:30:09.189Z,17.63
2023-02-15T20:31:09.362Z,17.63
2023-02-15T20:32:09.583Z,17.63
2023-02-15T20:33:09.366Z,17.62
2023-02-15T20:34:09.428Z,17.62
2023-02-15T20:35:09.488Z,17.62
2023-02-15T20:36:09.570Z,17.62
2023-02-15T20:37:09.618Z,17.62
2023-02-15T20:38:09.703Z,17.62
2023-02-15T20:39:09.784Z,17.62
2023-02-15T20:40:09.841Z,17.62
2023-02-15T20:41:09.889Z,17.61
2023-02-15T20:42:09.955Z,17.61
2023-02-15T20:43:10.020Z,17.61
2023-02-15T20:44:10.068Z,17.61
2023-02-15T20:45:10.142Z,17.62
2023-02-15T20:46:10.226Z,17.62
2023-02-15T20:47:10.266Z,17.61
2023-02-15T20:48:10.334Z,17.61
2023-02-15T20:49:10.408Z,17.61
2023-02-15T20:50:10.470Z,17.60
2023-02-15T20:51:10.547Z,17.61
2023-02-15T20:52:10.606Z,17.60
2023-02-15T20:53:10.681Z,17.60
2023-02-15T20:54:10.732Z,17.60
2023-02-15T20:55:10.798Z,17.60
2023-02-15T20:56:10.856Z,17.60
2023-02-15T20:57:10.935Z,17.59
2023-02-15T22:33:17.824Z,17.51
2023-02-15T22:34:17.915Z,17.51
2023-02-15T22:35:17.991Z,17.51
2023-02-15T22:36:18.047Z,17.51
2023-02-15T22:37:18.136Z,17.51
2023-02-15T22:38:18.216Z,17.52
2023-02-15T22:39:18.289Z,17.51
2023-02-15T22:40:18.364Z,17.51
2023-02-15T22:41:18.441Z,17.51
2023-02-15T22:42:18.516Z,17.52
2023-02-15T22:43:18.587Z,17.50
2023-02-15T22:44:18.668Z,17.51
2023-02-15T22:45:18.781Z,17.51
2023-02-15T22:46:18.913Z,17.51
2023-02-15T22:47:18.901Z,17.52
2023-02-15T22:48:18.991Z,17.50
2023-02-15T22:49:19.059Z,17.50
2023-02-15T22:50:19.154Z,17.50
2023-02-15T22:51:19.209Z,17.51
2023-02-15T22:52:19.296Z,17.50
2023-02-15T22:53:19.377Z,17.50
2023-02-15T22:54:19.448Z,17.50
2023-02-15T22:55:19.512Z,17.51
2023-02-15T22:56:19.592Z,17.51
2023-02-15T22:57:19.660Z,17.50
2023-02-15T22:58:19.741Z,17.50
2023-02-15T22:59:19.831Z,17.50
2023-02-15T23:00:19.909Z,17.49
2023-02-15T23:01:19.997Z,17.50
2023-02-15T23:02:20.069Z,17.50
2023-02-15T23:03:20.147Z,17.49
2023-02-15T23:04:20.257Z,17.49
2023-02-15T23:05:20.365Z,17.49
2023-02-15T23:06:20.395Z,17.48
2023-02-15T23:07:20.486Z,17.48
2023-02-15T23:08:20.569Z,17.49
2023-02-15T23:09:20.657Z,17.48
2023-02-15T23:10:20.735Z,17.48
2023-02-15T23:11:20.803Z,17.48
2023-02-15T23:12:20.901Z,17.48
2023-02-15T23:13:22.471Z,17.48
2023-02-15T23:14:21.001Z,17.47
2023-02-15T23:15:21.024Z,17.48
2023-02-15T23:16:21.097Z,17.48
2023-02-15T23:17:21.072Z,17.48
2023-02-15T23:18:21.115Z,17.48
2023-02-15T23:19:21.115Z,17.48
2023-02-15T23:20:21.111Z,17.48
2023-02-15T23:21:21.145Z,17.48
2023-02-15T23:22:21.173Z,17.47
2023-02-15T23:23:21.188Z,17.48
2023-02-15T23:24:21.227Z,17.48
2023-02-15T23:25:21.227Z,17.48
2023-02-15T23:26:21.271Z,17.47
2023-02-15T23:27:21.272Z,17.48
2023-02-15T23:28:21.290Z,17.48
2023-02-15T23:29:21.323Z,17.47
2023-02-15T23:30:21.394Z,17.47
2023-02-15T23:31:21.496Z,17.47
2023-02-15T23:32:21.420Z,17.47
2023-02-15T23:33:21.398Z,17.47
2023-02-15T23:34:21.426Z,17.47
2023-02-15T23:35:21.457Z,17.46
2023-02-15T23:36:21.472Z,17.47
2023-02-15T23:37:21.504Z,17.47
